Date,TemperatureHighF,TemperatureAvgF,TemperatureLowF,DewpointHighF,DewpointAvgF,DewpointLowF,HumidityHigh,HumidityAvg,HumidityLow,PressureMaxIn,PressureMinIn,WindSpeedMaxMPH,WindSpeedAvgMPH,GustSpeedMaxMPH,PrecipitationSumIn
2013-1-1,33.6,24.4,5.0,27.7,13.8,1.7,96,64,47,30.05,29.79,16,5,0,0.00
2013-1-2,27.3,10.1,-2.9,14.7,3.5,-7.6,94,75,55,30.26,29.99,12,3,0,0.00
2013-1-3,17.2,1.9,-9.8,2.3,-5.0,-11.9,90,74,39,30.26,30.01,6,2,0,0.00
2013-1-4,36.7,24.8,3.7,22.3,16.4,1.2,94,72,53,29.99,29.82,13,4,0,0.00
2013-1-5,36.7,28.8,15.3,24.2,18.9,13.6,95,68,39,30.26,29.85,18,4,0,0.00
2013-1-6,42.3,28.5,15.8,28.2,23.5,13.9,96,82,55,30.21,29.91,6,2,0,0.01
2013-1-7,37.4,24.8,9.3,27.8,18.0,8.6,97,77,35,30.36,29.95,9,2,0,0.00
2013-1-8,44.1,19.7,4.3,26.1,15.4,2.5,99,85,49,30.31,30.20,5,2,0,0.00
2013-1-9,42.8,24.2,9.1,29.2,20.0,8.2,99,85,53,30.32,29.87,10,2,0,0.00
2013-1-10,43.0,36.3,23.7,28.2,23.7,21.7,92,62,45,30.43,29.92,17,6,0,0.00
2013-1-11,32.0,25.0,19.2,31.8,24.6,19.0,99,98,93,30.40,30.03,3,1,0,0.12
2013-1-12,41.5,35.5,32.0,39.9,35.1,31.8,99,98,92,30.05,29.96,3,1,0,0.02
2013-1-13,41.9,37.3,33.3,41.5,37.0,33.0,99,99,95,29.98,29.82,4,1,0,0.01
2013-1-14,52.9,40.3,31.6,48.5,35.2,24.5,99,84,50,30.13,29.70,13,3,0,0.02
2013-1-15,37.8,30.0,23.0,28.3,24.9,21.9,99,83,53,30.19,30.07,4,1,0,0.00
2013-1-16,34.9,29.3,24.4,30.9,28.4,24.2,99,96,85,30.06,29.64,2,0,0,0.00
2013-1-17,40.5,28.8,19.8,33.7,21.8,1.9,99,77,45,29.96,29.64,11,2,0,0.06
2013-1-18,25.2,14.0,3.7,9.2,1.3,-5.3,85,59,31,30.23,29.92,10,3,0,0.01
2013-1-19,43.5,29.9,16.3,27.2,19.5,9.2,85,66,44,30.13,29.65,9,3,0,0.00
2013-1-20,42.4,31.4,22.8,29.5,21.2,5.5,89,67,42,29.79,29.37,14,5,0,0.00
2013-1-21,29.1,20.3,13.5,18.6,7.7,-1.5,96,60,37,29.90,29.63,10,3,0,0.00
2013-1-22,22.6,13.3,0.3,18.1,6.1,-4.4,98,75,44,29.91,29.60,10,2,0,0.00
2013-1-23,12.0,2.6,-7.4,-2.5,-11.6,-16.1,83,53,29,29.99,29.89,13,3,0,0.00
2013-1-24,16.5,2.7,-12.1,-7.5,-11.0,-15.3,88,56,32,30.11,29.95,14,4,0,0.00
2013-1-25,22.6,9.7,-2.9,5.4,-5.9,-10.3,80,51,26,30.18,29.91,8,2,0,0.00
2013-1-26,21.6,11.2,0.7,6.8,0.2,-7.4,92,64,32,30.10,29.88,9,4,0,0.00
2013-1-27,27.9,14.5,5.2,3.2,0.9,-4.4,84,58,25,30.32,30.10,10,4,0,0.00
2013-1-28,21.9,15.1,3.9,18.4,10.1,0.5,95,81,51,30.31,29.84,3,1,0,0.00
2013-1-29,35.2,27.3,19.4,31.0,24.2,18.2,99,89,68,30.02,29.86,5,1,0,0.00
2013-1-30,48.6,36.9,31.5,48.3,36.7,31.2,99,99,99,29.92,29.29,9,2,0,0.78
2013-2-1,20.5,18.9,17.1,5.3,4.4,3.2,59,53,48,29.91,29.84,11,4,0,0.00
2013-2-2,27.3,19.0,7.5,15.2,7.3,1.4,84,61,42,30.04,29.84,10,2,0,0.00
2013-2-3,31.5,21.6,10.8,16.0,12.6,8.9,95,70,43,29.87,29.57,6,2,0,0.00
2013-2-4,29.1,19.0,10.2,14.2,7.3,1.5,96,63,34,29.75,29.56,18,4,0,0.00
2013-2-5,35.8,17.0,2.5,16.3,7.2,0.0,93,68,32,29.86,29.75,5,1,0,0.00
2013-2-6,37.6,27.0,18.7,23.5,14.8,1.8,94,63,33,30.17,29.74,10,3,0,0.00
2013-2-7,32.5,18.9,7.0,7.3,1.2,-2.5,72,47,26,30.39,30.15,7,2,0,0.00
2013-2-8,23.0,20.9,17.4,18.9,13.1,-0.1,94,74,36,30.30,29.66,8,3,0,0.00
2013-2-9,23.0,16.2,5.9,17.9,8.3,-0.9,96,72,51,30.13,29.63,15,7,0,0.00
2013-2-10,43.7,13.2,-8.7,14.4,1.7,-11.3,94,66,20,30.32,30.13,7,1,0,0.04
2013-2-11,17.1,15.2,6.4,12.9,11.2,3.8,94,84,81,30.17,29.99,3,2,0,0.00
2013-2-12,17.1,17.1,17.1,12.8,12.8,12.8,83,83,83,29.99,29.99,2,2,0,0.00
2013-2-13,17.1,17.1,17.1,12.8,12.8,12.8,83,83,83,29.99,29.99,2,2,0,0.00
2013-2-14,50.7,28.2,17.1,24.5,19.9,12.8,99,74,34,29.99,29.62,6,2,0,0.00
2013-2-15,34.2,26.6,25.7,28.1,22.9,22.1,91,86,75,29.80,29.78,2,0,0,0.00
2013-2-16,37.9,34.3,27.3,30.4,22.6,16.7,98,66,44,29.83,29.74,6,3,0,0.00
2013-2-17,37.9,37.9,37.9,18.5,18.5,18.5,45,45,45,29.74,29.74,5,5,0,0.00
2013-2-18,37.9,37.9,37.9,18.5,18.5,18.5,45,45,45,29.74,29.74,5,5,0,0.00
2013-2-19,37.9,37.9,37.9,18.5,18.5,18.5,45,45,45,29.74,29.74,5,5,0,0.00
2013-2-20,37.9,37.9,37.9,18.5,18.5,18.5,45,45,45,29.74,29.74,5,5,0,0.00
2013-2-21,37.9,37.9,37.9,18.5,18.5,18.5,45,45,45,29.74,29.74,5,5,0,0.00
2013-2-22,37.9,37.9,37.9,18.5,18.5,18.5,45,45,45,29.74,29.74,5,5,0,0.00
2013-2-23,37.9,37.9,37.9,18.5,18.5,18.5,45,45,45,29.74,29.74,5,5,0,0.00
2013-2-24,37.9,37.9,37.9,18.5,18.5,18.5,45,45,45,29.74,29.74,5,5,0,0.00
2013-2-25,37.9,37.9,37.9,18.5,18.5,18.5,45,45,45,29.74,29.74,5,5,0,0.00
2013-2-26,37.9,37.9,37.9,18.5,18.5,18.5,45,45,45,29.74,29.74,5,5,0,0.00
2013-2-27,38.8,34.7,31.5,37.1,31.4,18.5,99,90,45,29.96,29.49,7,3,0,0.69
2013-2-28,47.3,35.3,29.8,37.7,32.9,29.6,99,92,69,29.49,29.39,4,1,0,0.06
2013-3-1,39.7,34.1,27.1,32.4,28.9,26.6,99,82,62,29.56,29.41,8,3,0,0.00
2013-3-2,39.6,33.6,28.8,29.2,26.7,23.7,84,76,61,29.56,29.50,8,4,0,0.00
2013-3-3,36.9,30.6,25.7,27.6,25.0,23.1,93,80,65,29.53,29.45,9,4,0,0.01
2013-3-4,36.7,30.4,25.9,25.1,21.9,19.2,83,71,57,29.67,29.49,12,6,0,0.00
2013-3-5,46.4,33.4,27.3,28.6,25.4,21.6,96,73,49,29.93,29.67,10,4,0,0.00
2013-3-6,39.6,34.5,30.9,34.3,29.3,24.8,99,82,62,30.02,29.91,10,3,0,0.01
2013-3-7,37.6,33.5,30.6,31.3,27.4,24.3,93,79,64,30.00,29.93,12,5,0,0.00
2013-3-8,41.7,34.3,27.3,28.3,25.5,22.7,96,71,51,30.09,29.89,23,7,0,0.06
2013-3-9,57.9,35.8,23.9,24.1,21.6,15.3,95,63,20,30.19,30.08,10,3,0,0.00
2013-3-10,59.7,36.8,18.9,30.6,25.2,18.6,99,69,28,30.25,30.08,9,2,0,0.00
2013-3-11,47.3,40.8,34.9,40.4,33.5,30.2,89,76,57,30.11,29.94,8,3,0,0.00
2013-3-12,49.5,44.5,39.4,49.2,43.8,39.1,99,97,84,29.94,29.53,6,2,0,1.19
2013-3-13,50.2,36.9,25.2,38.5,29.1,20.7,99,77,38,29.66,29.58,8,3,0,0.00
2013-3-14,32.0,26.7,19.6,26.0,15.6,6.9,97,64,46,29.71,29.58,14,5,0,0.00
2013-3-15,40.8,27.3,16.7,29.2,14.3,4.3,94,60,26,29.73,29.45,10,4,0,0.00
2013-3-16,39.4,29.1,21.2,22.3,13.6,9.9,73,53,33,29.73,29.55,14,4,0,0.00
2013-3-17,34.9,25.4,18.1,16.8,9.8,2.8,87,54,33,30.17,29.73,18,4,0,0.00
2013-3-18,39.0,23.9,6.4,26.2,7.0,1.3,94,54,21,30.31,30.04,6,2,0,0.00
2013-3-19,36.3,29.9,26.1,32.5,28.7,25.8,99,95,81,30.04,29.55,3,0,0,0.02
2013-3-20,42.4,27.5,16.2,26.3,21.1,15.6,99,79,46,29.62,29.54,8,0,0,0.06
2013-3-21,49.6,26.2,7.7,19.3,14.3,7.0,98,68,22,29.63,29.44,5,2,0,0.11
2013-3-22,46.0,26.7,9.7,28.2,18.2,9.2,99,74,38,29.59,29.48,9,3,0,0.08
2013-3-23,42.1,28.9,17.6,22.3,19.4,17.0,99,71,38,29.65,29.53,17,5,0,0.00
2013-3-24,46.0,35.4,25.2,24.8,23.3,21.5,90,63,43,29.70,29.60,10,4,0,0.00
2013-3-25,45.7,34.3,23.5,28.8,25.4,22.1,95,72,46,29.65,29.39,7,2,0,0.00
2013-3-26,47.8,36.0,24.3,31.9,25.7,20.6,94,69,38,29.66,29.43,12,3,0,0.00
2013-3-27,50.9,36.8,20.3,31.5,25.3,20.1,99,68,38,29.76,29.63,9,3,0,0.00
2013-3-28,50.0,38.9,30.2,36.8,32.8,29.4,99,81,48,29.90,29.75,9,2,0,0.00
2013-3-29,54.0,39.4,27.7,35.9,31.7,27.4,99,78,42,29.93,29.86,11,2,0,0.00
2013-3-30,56.5,38.4,23.7,34.3,24.3,18.6,99,65,24,29.96,29.88,12,2,0,0.00
2013-3-31,58.5,39.2,20.1,40.5,26.7,19.8,99,69,28,29.98,29.60,14,3,0,0.21
2013-4-1,56.3,40.4,29.1,46.6,33.1,11.8,99,78,36,29.65,29.36,11,3,0,0.27
2013-4-2,37.4,30.3,22.8,20.3,13.8,9.5,72,50,35,29.76,29.65,16,6,0,0.00
2013-4-3,45.1,34.4,25.7,16.7,11.3,6.6,58,40,22,30.02,29.75,17,7,0,0.00
2013-4-4,59.7,39.6,22.5,23.9,16.9,8.8,80,44,18,30.15,29.83,13,3,0,0.00
2013-4-5,59.0,42.7,32.2,31.0,26.2,21.8,87,56,25,29.83,29.54,14,4,0,0.00
2013-4-6,46.9,33.2,23.9,21.6,11.2,4.1,64,43,18,30.17,29.78,14,6,0,0.00
2013-4-7,59.9,38.9,20.7,38.3,25.0,13.2,86,60,33,30.15,29.78,13,4,0,0.00
2013-4-8,70.5,48.5,33.6,39.8,36.5,33.4,99,68,27,29.95,29.81,12,3,0,0.00
2013-4-9,66.7,51.5,40.5,52.3,43.9,37.9,99,78,42,29.88,29.73,10,2,0,0.35
2013-4-10,61.0,49.6,43.9,51.2,46.7,42.5,99,91,67,29.85,29.72,7,2,0,1.03
2013-4-11,45.1,40.9,35.4,44.9,37.6,27.9,99,89,51,30.01,29.74,8,3,0,0.09
2013-4-12,35.6,33.1,31.8,35.3,32.5,29.9,99,98,91,30.01,29.71,7,2,0,0.23
2013-4-13,39.0,34.4,32.2,38.6,33.9,31.9,99,98,91,29.79,29.67,4,1,0,0.01
2013-4-14,51.8,41.0,30.7,39.7,32.3,27.8,99,75,42,30.09,29.78,13,3,0,0.00
2013-4-15,67.5,42.8,24.4,38.0,31.5,24.2,99,71,30,30.23,30.10,10,2,0,0.00
2013-4-16,64.0,50.6,37.8,53.0,43.2,32.0,99,77,52,30.20,29.89,12,4,0,0.13
2013-4-17,65.3,52.0,35.2,52.6,36.3,28.8,99,60,28,30.22,29.91,11,4,0,0.00
2013-4-18,66.9,48.1,27.0,43.9,32.8,26.7,99,61,32,30.29,29.96,10,4,0,0.00
2013-4-19,73.4,61.1,50.2,62.8,55.9,45.0,96,84,67,29.95,29.42,18,5,0,0.29
2013-4-20,55.9,46.9,36.3,53.5,34.7,19.5,99,66,37,30.11,29.49,11,5,0,0.52
2013-4-21,55.9,39.9,26.6,23.9,20.0,15.7,82,48,22,30.54,30.12,10,4,0,0.00
2013-4-22,62.2,40.8,24.3,30.0,24.7,18.6,95,59,25,30.61,30.44,8,3,0,0.00
2013-4-23,43.5,38.0,28.8,37.8,33.8,26.6,97,85,74,30.46,30.03,5,2,0,0.00
2013-4-24,79.7,56.3,39.4,49.7,43.5,37.7,99,69,29,30.03,29.58,11,4,0,0.00
2013-4-25,64.8,50.5,32.5,50.1,34.6,27.3,97,58,25,30.15,29.60,12,4,0,0.04
2013-4-26,64.8,45.3,25.5,38.0,31.5,24.8,99,64,29,30.28,30.16,7,2,0,0.00
2013-4-27,73.4,49.0,28.9,40.2,33.5,28.2,99,62,22,30.30,30.12,8,2,0,0.00
2013-4-28,80.8,53.2,28.8,42.9,34.6,28.0,99,57,19,30.20,29.99,7,2,0,0.01
2013-4-29,68.9,56.2,43.3,45.2,38.2,32.4,68,52,35,30.11,30.02,9,3,0,0.00
2013-4-30,80.8,60.6,46.9,43.3,37.0,29.7,68,44,21,30.19,30.09,8,2,0,0.00
2013-5-1,86.7,58.1,33.8,41.1,34.3,28.0,92,49,12,30.33,30.19,8,2,0,0.00
2013-5-2,86.0,58.5,36.9,46.8,39.2,26.8,97,55,22,30.35,30.14,8,2,0,0.00
2013-5-3,78.6,54.8,33.6,45.9,38.9,30.4,97,60,29,30.41,30.21,9,2,0,0.00
2013-5-4,84.0,57.4,36.0,49.2,39.7,30.0,99,61,15,30.24,30.06,9,2,0,0.00
2013-5-5,83.8,55.8,32.4,41.4,35.2,29.7,97,54,15,30.18,30.02,6,2,0,0.00
2013-5-6,85.3,56.8,33.6,45.7,36.2,25.2,99,57,13,30.13,29.95,6,2,0,0.00
2013-5-7,89.6,62.8,38.7,54.8,45.0,37.5,99,61,21,30.04,29.89,9,3,0,0.00
2013-5-8,77.2,61.5,47.1,63.8,57.5,46.9,99,88,55,30.06,29.89,7,2,0,0.41
2013-5-9,77.4,63.5,54.1,63.9,58.4,53.6,99,85,56,29.89,29.72,5,1,0,0.15
2013-5-10,82.0,63.8,53.1,63.5,57.2,52.5,99,82,48,29.84,29.72,5,1,0,0.00
2013-5-11,68.0,61.6,57.6,65.6,60.0,56.4,99,95,84,29.72,29.53,6,2,0,0.39
2013-5-12,66.6,56.5,43.2,57.6,44.7,25.7,99,69,31,29.66,29.46,14,3,0,0.00
2013-5-13,52.9,45.2,39.0,35.8,29.5,27.1,87,55,39,29.92,29.67,13,4,0,0.00
2013-5-14,55.2,42.7,32.4,36.6,33.0,27.3,98,73,36,29.93,29.87,10,2,0,0.00
2013-5-15,63.0,45.7,27.1,51.3,38.6,26.4,99,80,33,29.92,29.52,11,2,0,0.02
2013-5-16,80.4,61.4,43.0,51.4,42.0,30.0,99,59,22,29.71,29.49,13,4,0,0.01
2013-5-17,71.2,54.1,37.9,44.5,40.2,34.8,99,65,29,30.09,29.71,12,2,0,0.00
2013-5-18,80.1,53.5,33.3,49.2,40.7,32.5,99,70,24,30.18,30.06,5,1,0,0.00
2013-5-19,70.3,54.6,39.9,56.7,50.1,39.4,99,87,57,30.19,30.04,8,2,0,0.20
2013-5-20,84.9,65.3,54.7,66.0,59.3,54.4,99,83,50,30.03,29.81,6,2,0,0.00
2013-5-21,71.8,57.5,52.2,62.6,55.3,50.5,99,93,67,29.89,29.71,11,2,0,0.41
2013-5-22,78.3,61.9,52.0,69.5,59.6,51.3,99,93,73,29.82,29.69,6,2,0,1.33
2013-5-23,76.6,67.2,59.9,70.6,64.8,59.3,99,93,79,29.73,29.61,8,2,0,0.06
2013-5-24,68.0,56.8,45.1,66.1,54.7,43.8,99,93,84,29.77,29.50,8,3,0,0.74
2013-5-25,45.1,43.2,36.9,44.3,42.3,36.3,98,97,93,29.77,29.68,10,3,0,0.39
2013-5-26,57.2,45.5,35.8,43.5,39.6,35.2,99,81,57,29.95,29.63,15,5,0,0.02
2013-5-27,76.1,51.9,30.4,45.1,37.7,30.1,99,68,24,30.05,29.94,14,3,0,0.00
2013-5-28,77.5,56.4,35.1,50.2,42.7,34.3,99,67,27,30.13,29.99,5,2,0,0.00
2013-5-29,68.5,60.5,55.6,63.7,58.4,50.0,99,93,81,30.01,29.83,3,1,0,0.59
2013-5-30,72.0,61.4,58.5,68.9,61.0,58.2,99,98,90,29.95,29.89,4,1,0,0.01
2013-5-31,99.0,83.2,65.7,68.5,64.0,56.5,96,59,27,29.85,29.79,8,2,0,0.00
2013-6-1,100.6,77.4,60.8,72.3,66.2,60.5,99,73,33,29.83,29.69,7,2,0,0.00
2013-6-2,90.9,74.0,64.9,73.0,68.3,64.7,99,84,53,29.72,29.52,14,2,0,0.55
2013-6-3,81.7,68.6,49.8,67.3,58.5,46.5,99,74,39,29.72,29.64,8,2,0,0.01
2013-6-4,73.9,56.4,41.0,49.7,44.6,39.7,97,69,37,29.97,29.72,11,3,0,0.00
2013-6-5,82.6,60.1,42.1,52.7,46.4,41.3,98,67,27,30.07,29.94,8,2,0,0.00
2013-6-6,75.9,60.6,45.5,56.0,49.9,43.9,97,71,43,30.06,29.93,7,1,0,0.06
2013-6-7,56.8,53.4,51.8,56.0,52.0,50.0,99,95,90,29.96,29.74,3,1,0,1.57
2013-6-8,72.5,61.5,51.3,61.4,56.7,51.0,99,85,65,29.88,29.58,9,3,0,0.53
2013-6-9,82.6,66.7,54.5,59.4,56.2,53.1,98,73,39,30.05,29.88,8,2,0,0.00
2013-6-10,74.3,60.9,49.5,63.6,56.8,48.6,99,87,68,30.08,29.85,5,1,0,0.50
2013-6-11,63.9,58.4,55.6,58.8,56.4,54.2,98,93,80,29.85,29.44,5,1,0,1.35
2013-6-12,70.7,60.3,49.8,55.8,53.7,48.7,98,81,54,29.71,29.44,12,4,0,0.06
2013-6-13,63.0,54.3,45.5,58.7,52.1,45.0,99,93,80,29.70,29.58,3,1,0,0.45
2013-6-14,82.6,64.1,52.7,60.3,53.8,48.4,98,74,36,29.69,29.55,7,2,0,0.04
2013-6-15,82.2,60.4,43.9,55.4,48.1,43.4,99,72,28,29.80,29.69,8,2,0,0.00
2013-6-16,73.2,60.4,47.5,60.0,54.4,46.4,97,82,55,29.81,29.57,5,2,0,0.00
2013-6-17,82.6,65.0,52.3,63.2,57.8,51.5,99,81,41,29.77,29.64,8,2,0,0.08
2013-6-18,64.6,58.9,51.8,60.0,56.2,50.1,97,91,82,29.84,29.76,5,1,0,0.05
2013-6-19,79.3,61.2,47.1,53.2,48.2,43.0,98,68,31,30.04,29.82,7,2,0,0.00
2013-6-20,88.3,61.6,40.3,55.2,46.3,37.5,97,65,18,30.15,30.04,6,2,0,0.00
2013-6-21,91.8,67.4,48.6,61.2,52.1,45.8,94,65,28,30.12,30.05,7,2,0,0.00
2013-6-22,92.3,68.9,51.4,68.8,59.9,49.7,96,76,41,30.09,29.94,6,1,0,0.00
2013-6-23,94.1,75.8,63.3,74.3,66.3,59.6,93,74,48,30.00,29.81,7,2,0,0.04
2013-6-24,91.4,75.8,66.7,72.4,67.6,63.2,97,78,52,29.88,29.77,8,2,0,0.01
2013-6-25,91.8,74.4,64.9,71.7,66.5,63.5,96,79,41,29.83,29.61,10,2,0,0.44
2013-6-26,81.3,70.6,63.1,71.2,66.7,61.7,96,88,67,29.71,29.61,4,1,0,0.28
2013-6-27,89.6,72.3,62.1,73.0,66.1,60.6,96,82,54,29.71,29.58,8,2,0,0.00
2013-6-28,88.3,68.8,59.5,73.6,64.2,57.4,95,86,62,29.58,29.30,6,2,0,2.84
2013-6-29,88.7,72.6,65.5,70.3,65.7,62.8,97,81,50,29.55,29.35,10,1,0,0.16
2013-6-30,86.0,72.7,64.4,74.2,67.4,62.3,95,85,61,29.78,29.55,5,1,0,0.48
2013-7-1,81.7,72.5,68.0,74.1,69.5,66.7,96,91,78,29.92,29.78,5,1,0,0.12
2013-7-2,91.9,75.5,68.0,76.5,70.6,65.8,98,86,61,30.03,29.90,8,2,0,0.96
2013-7-3,95.2,76.9,65.8,75.6,70.3,64.8,97,82,52,30.05,29.98,5,2,0,0.20
2013-7-4,99.9,80.4,68.0,77.9,71.7,67.0,97,77,43,30.07,29.94,9,2,0,0.00
2013-7-5,100.4,81.4,69.1,76.1,71.2,67.9,96,75,38,30.03,29.89,8,2,0,0.05
2013-7-6,92.3,77.1,67.1,74.8,69.1,64.7,95,79,44,29.96,29.87,7,1,0,0.00
2013-7-7,90.9,76.3,63.7,76.4,68.8,61.8,95,79,54,29.91,29.76,5,1,0,0.00
2013-7-8,87.3,76.7,70.9,72.3,69.7,67.4,95,80,58,29.92,29.79,6,1,0,0.12
2013-7-9,90.9,73.0,66.9,73.0,67.4,64.5,92,84,53,29.97,29.89,7,2,0,0.02
2013-7-10,84.7,73.5,68.7,74.3,69.9,66.6,96,89,71,29.91,29.65,7,1,0,0.48
2013-7-11,87.3,74.5,61.2,72.7,68.5,58.5,97,83,50,29.85,29.61,5,1,0,0.00
2013-7-12,91.2,71.2,59.2,68.0,61.2,57.4,96,74,40,30.08,29.86,6,2,0,0.00
2013-7-13,77.9,68.4,58.6,68.7,63.0,56.0,94,84,64,30.18,30.08,4,1,0,0.04
2013-7-14,96.4,76.2,66.0,75.3,69.2,64.5,96,81,45,30.19,30.08,4,1,0,0.00
2013-7-15,97.5,78.9,65.5,73.3,68.2,63.7,95,74,37,30.11,29.98,7,1,0,0.00
2013-7-16,96.1,78.0,63.5,73.5,66.9,61.4,95,72,40,30.07,30.00,7,1,0,0.00
2013-7-17,99.9,79.2,63.1,74.5,67.7,61.4,95,72,35,30.08,29.86,8,2,0,0.00
2013-7-18,102.7,80.9,69.1,74.6,69.7,66.5,94,72,35,29.89,29.79,10,2,0,0.00
2013-7-19,100.2,82.0,68.0,75.8,70.2,66.2,94,71,37,29.82,29.56,15,2,0,0.25
2013-7-20,89.8,75.5,64.8,71.9,66.8,61.7,95,77,47,29.68,29.53,8,2,0,0.01
2013-7-21,91.0,71.7,59.2,68.3,62.1,57.7,95,75,39,29.86,29.69,4,1,0,0.00
2013-7-22,86.5,68.9,59.9,71.3,63.9,58.2,95,85,58,29.90,29.73,6,2,0,0.48
2013-7-23,84.9,70.2,65.1,71.9,66.2,63.3,96,88,61,29.73,29.41,5,2,0,1.70
2013-7-24,81.3,69.1,54.0,69.5,60.4,47.3,97,76,48,29.89,29.46,12,3,0,0.00
2013-7-25,73.8,60.6,45.9,61.5,52.5,43.4,95,76,56,29.98,29.88,7,2,0,0.00
2013-7-26,79.0,65.9,60.6,64.5,59.1,57.0,90,79,57,29.95,29.85,6,2,0,0.00
2013-7-27,66.0,64.2,62.8,62.0,61.1,60.6,93,90,87,29.87,29.85,3,2,0,0.00
2013-7-28,83.3,70.2,58.1,69.3,63.9,57.0,96,82,54,29.88,29.80,6,1,0,0.09
2013-7-29,72.3,70.4,64.6,68.3,67.3,63.4,96,90,87,29.88,29.83,5,3,0,0.10
2013-7-30,72.3,72.3,72.3,68.2,68.2,68.2,87,87,87,29.88,29.88,5,5,0,0.00
2013-7-31,72.3,72.3,72.3,68.2,68.2,68.2,87,87,87,29.88,29.88,5,5,0,0.00
2013-8-1,72.3,72.3,72.3,68.2,68.2,68.2,87,87,87,29.88,29.88,5,5,0,0.00
2013-8-2,72.3,72.3,72.3,68.2,68.2,68.2,87,87,87,29.88,29.88,5,5,0,0.00
2013-8-3,72.3,72.3,72.3,68.2,68.2,68.2,87,87,87,29.88,29.88,5,5,0,0.00
2013-8-4,72.3,72.3,72.3,68.2,68.2,68.2,87,87,87,29.88,29.88,5,5,0,0.00
2013-8-5,72.3,72.3,72.3,68.2,68.2,68.2,87,87,87,29.88,29.88,5,5,0,0.00
2013-8-6,72.3,72.3,72.3,68.2,68.2,68.2,87,87,87,29.88,29.88,5,5,0,0.00
2013-8-7,72.3,72.3,72.3,68.2,68.2,68.2,87,87,87,29.88,29.88,5,5,0,0.00
2013-8-8,72.3,72.3,72.3,68.2,68.2,68.2,87,87,87,29.88,29.88,5,5,0,0.00
2013-8-9,72.3,72.3,72.3,68.2,68.2,68.2,87,87,87,29.88,29.88,5,5,0,0.00
2013-8-10,72.3,72.3,72.3,68.2,68.2,68.2,87,87,87,29.88,29.88,5,5,0,0.00
2013-8-11,72.3,72.3,72.3,68.2,68.2,68.2,87,87,87,29.88,29.88,5,5,0,0.00
2013-8-12,72.3,72.3,72.3,68.2,68.2,68.2,87,87,87,29.88,29.88,5,5,0,0.00
2013-8-13,72.3,72.3,72.3,68.2,68.2,68.2,87,87,87,29.88,29.88,5,5,0,0.00
2013-8-14,53.1,51.3,49.8,51.1,49.5,48.4,95,94,92,29.84,29.81,2,0,0,0.00
2013-8-15,79.7,59.8,44.4,56.5,49.7,43.6,97,74,37,29.99,29.84,8,2,0,0.00
2013-8-16,88.2,62.6,45.9,60.3,51.9,44.8,96,73,30,30.07,29.98,6,1,0,0.00
2013-8-17,89.8,65.2,50.7,64.4,54.7,49.1,95,74,29,30.17,30.08,6,1,0,0.00
2013-8-18,80.2,65.3,54.3,64.9,58.6,51.6,95,81,54,30.16,29.96,3,1,0,0.00
2013-8-19,88.5,67.1,53.4,65.1,58.5,52.0,96,78,35,29.96,29.82,6,1,0,0.00
2013-8-20,92.1,69.8,53.4,65.8,59.1,52.3,96,74,35,29.98,29.87,7,1,0,0.00
2013-8-21,95.7,71.2,56.5,67.4,60.7,55.4,96,74,35,30.04,29.90,8,2,0,0.00
2013-8-22,93.0,73.2,57.0,68.4,62.7,55.9,96,74,36,29.91,29.68,6,2,0,0.22
2013-8-23,78.8,66.5,51.8,65.7,57.0,47.2,96,74,41,30.04,29.71,7,2,0,0.01
2013-8-24,89.4,61.6,45.9,58.7,49.2,41.0,95,70,20,30.22,30.04,5,2,0,0.00
2013-8-25,89.1,63.5,45.1,62.5,52.7,43.0,94,73,31,30.27,30.03,5,1,0,0.00
2013-8-26,82.9,68.6,60.4,67.2,62.7,54.4,95,82,56,30.05,29.74,6,1,0,0.33
2013-8-27,93.7,74.5,65.8,75.8,67.6,64.2,96,81,49,29.77,29.69,6,1,0,0.00
2013-8-28,94.6,72.9,63.0,76.5,66.9,61.8,97,83,56,29.87,29.71,6,1,0,1.12
2013-8-29,78.1,67.3,63.0,67.5,63.6,59.4,97,89,67,29.94,29.83,5,1,0,0.09
2013-8-30,93.4,71.7,62.2,78.8,65.8,59.5,99,83,58,29.90,29.67,6,1,0,0.00
2013-8-31,81.1,71.5,64.9,76.7,70.1,64.7,99,96,85,29.69,29.61,6,2,0,0.21
2013-9-1,90.0,74.2,67.1,79.6,71.1,66.8,99,91,70,29.73,29.65,4,1,0,0.00
2013-9-2,85.3,74.2,67.5,79.5,72.8,67.2,99,95,79,29.71,29.55,5,1,0,0.41
2013-9-3,78.4,68.1,57.0,72.9,65.7,56.7,99,92,71,29.69,29.60,6,2,0,0.14
2013-9-4,83.3,65.2,54.0,76.8,62.5,53.7,99,92,78,29.77,29.68,8,2,0,0.00
2013-9-5,71.4,59.1,43.3,63.0,55.0,43.1,99,88,57,30.04,29.73,8,2,0,0.00
2013-9-6,77.9,52.9,35.6,60.9,47.7,35.3,99,85,40,30.13,29.96,6,1,0,0.00
2013-9-7,76.8,56.9,41.7,73.7,54.8,41.5,99,93,75,29.96,29.71,5,1,0,0.02
2013-9-8,70.2,58.9,41.7,63.8,56.0,41.5,99,91,71,29.98,29.64,11,2,0,0.00
2013-9-9,73.9,52.9,35.2,70.1,51.0,35.0,99,94,77,30.12,29.97,6,1,0,0.00
2013-9-10,75.0,62.2,50.4,74.7,61.9,50.1,99,99,99,29.99,29.87,6,2,0,0.11
2013-9-11,100.9,77.7,67.1,99.9,77.0,66.8,99,98,90,29.93,29.78,8,2,0,0.08
2013-9-12,79.0,68.9,65.8,78.7,68.6,65.6,99,99,99,29.82,29.52,6,1,0,2.30
2013-9-13,67.5,64.0,55.9,67.2,63.7,55.7,99,99,99,29.68,29.47,7,2,0,0.07
2013-9-14,64.4,56.4,48.0,64.1,56.1,47.8,99,99,98,29.93,29.67,9,2,0,0.00
2013-9-15,74.8,55.5,45.5,74.5,55.2,45.2,99,99,93,30.03,29.90,5,1,0,0.00
2013-9-16,66.2,54.2,38.7,65.1,53.8,38.4,99,99,94,30.16,29.87,9,2,0,0.01
2013-9-17,72.7,47.6,32.0,71.8,47.1,31.8,99,98,83,30.32,30.17,7,2,0,0.00
2013-9-18,81.7,52.7,34.5,79.4,52.2,34.3,99,98,78,30.21,30.00,5,1,0,0.00
2013-9-19,88.3,57.2,42.4,85.8,56.1,42.2,99,97,52,30.03,29.89,4,1,0,0.00
2013-9-20,87.1,60.1,47.1,86.8,59.8,46.9,99,99,94,29.99,29.84,5,1,0,0.00
2013-9-21,76.1,61.2,48.7,75.8,60.9,48.5,99,99,99,29.86,29.51,8,2,0,0.02
2013-9-22,67.6,59.8,45.7,67.3,59.5,45.4,99,99,99,29.74,29.44,11,3,0,1.32
2013-9-23,63.3,49.8,37.6,63.0,49.5,37.3,99,99,99,29.90,29.73,9,3,0,0.00
2013-9-24,68.2,54.0,45.3,67.2,53.6,45.1,99,99,90,29.88,29.71,11,3,0,0.00
2013-9-25,77.2,53.5,37.4,76.9,53.2,37.1,99,99,99,29.87,29.74,7,1,0,0.00
2013-9-26,72.1,54.3,39.6,71.8,54.0,39.3,99,99,99,30.02,29.87,6,2,0,0.00
2013-9-27,72.1,54.2,43.9,71.8,53.4,7.0,99,98,18,30.16,30.02,6,1,0,0.00
2013-9-28,81.1,56.6,41.9,80.8,56.3,41.6,99,99,99,30.23,30.12,6,2,0,0.00
2013-9-29,84.0,56.8,44.6,83.7,56.5,44.3,99,99,99,30.14,29.95,5,1,0,0.00
2013-9-30,81.9,54.6,40.3,81.5,54.3,40.0,99,99,99,29.99,29.82,7,1,0,0.00
2013-10-1,87.6,58.6,42.8,87.3,58.3,42.5,99,99,99,29.88,29.72,5,1,0,0.00
2013-10-2,83.3,61.4,46.4,83.0,61.1,46.1,99,99,99,29.84,29.71,9,2,0,0.00
2013-10-3,86.7,59.2,41.7,82.8,58.5,41.5,99,98,76,29.98,29.84,5,1,0,0.00
2013-10-4,65.8,54.7,45.5,65.6,54.4,45.2,99,99,99,29.98,29.91,3,1,0,0.06
2013-10-5,65.8,59.6,55.6,65.6,59.3,55.3,99,99,99,29.99,29.93,4,0,0,0.00
2013-10-6,57.9,53.1,50.9,57.6,52.9,50.6,99,99,99,30.09,29.98,4,1,0,0.31
2013-10-7,71.2,57.4,49.8,70.9,57.2,49.6,99,99,99,29.99,29.56,11,2,0,0.46
2013-10-8,67.1,50.2,36.3,66.8,49.9,36.1,99,99,97,30.26,29.78,8,2,0,0.01
2013-10-9,71.6,46.8,34.7,71.3,46.5,34.4,99,99,99,30.38,30.23,5,1,0,0.00
2013-10-10,60.1,46.2,33.8,59.8,45.9,33.5,99,99,99,30.24,30.06,4,1,0,0.00
2013-10-11,70.5,53.0,41.4,70.2,52.7,41.1,99,99,99,30.06,29.97,6,1,0,0.00
2013-10-12,59.9,50.9,42.6,59.6,50.6,42.4,99,99,99,30.26,30.05,5,1,0,0.00
2013-10-13,71.2,53.5,39.2,70.9,53.2,38.9,99,99,99,30.31,30.22,5,1,0,0.00
2013-10-14,72.9,55.5,42.6,72.6,55.3,42.4,99,99,99,30.25,30.08,6,1,0,0.00
2013-10-15,67.8,59.1,50.7,67.5,58.8,50.4,99,99,99,30.13,30.02,3,1,0,0.00
2013-10-16,64.2,54.9,48.7,63.9,54.6,48.5,99,99,99,30.02,29.74,5,1,0,0.00
2013-10-17,77.2,58.5,49.8,76.9,58.2,49.6,99,99,99,29.74,29.56,12,2,0,0.05
2013-10-18,64.4,54.1,41.9,64.1,53.8,41.6,99,99,99,29.76,29.44,8,2,0,0.28
2013-10-19,70.0,49.9,32.5,69.7,49.6,32.3,99,99,99,29.82,29.57,6,2,0,0.00
2013-10-20,60.3,48.6,33.3,60.0,48.3,33.0,99,99,99,29.88,29.53,13,3,0,0.00
2013-10-21,71.4,46.5,28.2,71.1,46.2,28.0,99,99,99,29.98,29.80,6,2,0,0.00
2013-10-22,57.6,45.6,31.3,57.3,45.3,31.0,99,99,99,29.80,29.57,10,2,0,0.00
2013-10-23,57.7,41.1,29.3,57.5,40.8,29.1,99,99,99,29.65,29.45,5,1,0,0.00
2013-10-24,49.8,40.0,27.5,49.6,39.7,27.3,99,99,99,29.73,29.51,15,3,0,0.00
2013-10-25,51.3,36.5,26.4,51.0,36.2,26.2,99,99,99,29.99,29.73,10,2,0,0.00
2013-10-26,51.1,39.4,25.5,50.8,39.2,25.3,99,99,99,29.99,29.68,9,2,0,0.00
2013-10-27,53.6,43.5,29.7,53.3,43.2,29.4,99,99,99,29.90,29.62,10,3,0,0.00
2013-10-28,55.4,37.7,24.3,55.1,37.5,24.0,99,99,99,30.22,29.90,10,3,0,0.00
2013-10-29,56.1,30.7,17.1,47.0,29.0,16.8,99,95,56,30.33,30.21,7,1,0,0.00
2013-10-30,55.0,35.6,25.2,54.8,35.3,24.9,99,99,99,30.21,30.05,3,0,0,0.00
2013-10-31,57.2,39.5,26.2,56.9,39.3,26.0,99,99,99,30.10,29.58,9,2,0,0.53
2013-11-1,68.2,58.7,46.9,67.9,58.4,46.7,99,99,99,29.56,29.23,13,4,0,1.14
2013-11-2,70.2,48.2,35.2,69.9,47.9,35.0,99,99,99,29.67,29.45,8,1,0,0.05
2013-11-3,44.6,36.3,22.1,42.7,35.4,21.9,99,97,73,30.31,29.67,14,5,0,0.00
2013-11-4,45.5,27.5,16.3,39.6,25.4,16.1,99,93,55,30.55,30.31,9,2,0,0.00
2013-11-5,52.5,31.8,19.4,52.2,31.6,19.2,99,99,99,30.56,30.34,7,1,0,0.00
2013-11-6,63.0,46.3,30.7,62.7,46.0,30.5,99,99,99,30.34,29.84,10,2,0,0.00
2013-11-7,55.0,48.7,37.6,54.8,48.4,37.3,99,99,99,29.82,29.56,11,3,0,0.12
2013-11-8,37.2,32.4,27.0,37.0,32.2,26.7,99,99,99,29.70,29.69,8,2,0,0.00
2013-11-10,48.0,42.4,29.7,47.8,42.2,29.4,99,99,99,29.72,29.58,11,3,0,0.00
2013-11-11,53.6,41.9,35.6,51.9,41.3,35.3,99,98,79,29.93,29.72,9,3,0,0.00
2013-11-12,42.8,31.9,22.1,42.5,31.6,21.9,99,99,99,30.06,29.72,11,4,0,0.00
2013-11-13,35.8,25.8,19.4,33.0,24.4,19.2,99,95,70,30.15,29.96,11,3,0,0.00
2013-11-14,53.1,33.7,24.4,48.7,33.1,24.2,99,98,72,29.95,29.89,8,3,0,0.00
2013-11-15,60.4,34.7,22.5,49.7,31.9,22.2,99,92,40,30.04,29.94,5,2,0,0.00
2013-11-16,67.3,39.3,27.0,57.1,36.9,26.7,99,93,51,30.16,30.03,5,1,0,0.00
2013-11-17,45.0,36.3,26.2,44.7,36.1,26.0,99,99,99,30.16,29.63,3,0,0,0.08
2013-11-18,65.1,53.4,43.0,64.8,53.1,42.7,99,99,99,29.61,29.32,11,3,0,0.53
2013-11-19,43.9,35.2,25.9,43.6,35.0,25.6,99,99,99,30.18,29.52,14,6,0,0.00
2013-11-20,43.9,26.7,17.6,40.9,26.0,17.4,99,98,78,30.49,30.18,10,2,0,0.00
2013-11-21,49.8,28.5,12.7,41.6,27.0,12.5,99,95,55,30.50,30.21,5,1,0,0.00
2013-11-22,40.6,36.0,31.3,40.4,35.8,31.0,99,99,99,30.20,29.67,3,0,0,0.24
2013-11-23,42.6,34.9,25.2,42.4,34.7,24.9,99,99,99,29.81,29.62,14,5,0,0.01
2013-11-24,25.2,20.3,15.3,24.6,17.4,11.3,99,89,61,30.06,29.65,21,8,0,0.02
2013-11-25,37.6,22.3,8.8,28.7,17.5,5.4,99,86,34,30.21,30.05,11,2,0,0.00
2013-11-26,35.6,31.3,28.0,35.3,31.0,27.8,99,99,99,30.14,29.89,6,2,0,0.02
2013-11-27,38.5,34.8,31.8,38.2,34.5,31.6,99,99,99,29.87,29.13,6,2,0,2.03
2013-11-28,33.8,24.5,10.4,33.5,23.5,10.2,99,96,71,30.27,29.32,15,5,0,0.00
2013-11-29,31.1,16.6,6.3,30.5,15.6,6.0,99,96,72,30.60,30.27,9,2,0,0.00
2013-11-30,34.7,18.1,2.3,30.0,17.6,2.1,99,98,77,30.66,30.25,6,1,0,0.00
2013-12-1,43.0,32.1,25.3,42.7,31.8,25.1,99,99,99,30.25,29.88,2,0,0,0.00
2013-12-2,40.1,33.4,27.0,39.8,33.1,26.7,99,99,99,29.88,29.75,3,1,0,0.00
2013-12-3,43.2,32.0,25.5,42.9,31.8,25.3,99,99,99,29.82,29.73,5,1,0,0.00
2013-12-4,45.7,29.6,21.2,45.4,29.4,21.0,99,99,99,30.04,29.81,7,1,0,0.00
2013-12-5,38.8,33.2,24.3,38.6,32.9,24.0,99,99,99,30.04,29.73,4,1,0,0.02
2013-12-6,44.6,39.3,32.5,44.3,39.0,32.3,99,99,99,29.99,29.70,5,2,0,0.26
2013-12-7,38.1,30.0,22.3,37.9,29.8,22.0,99,99,99,30.29,29.94,10,3,0,0.04
2013-12-8,30.4,24.6,17.1,30.1,24.4,16.8,99,99,99,30.42,30.29,4,1,0,0.00
2013-12-9,30.9,27.6,23.2,30.7,27.3,22.9,99,99,99,30.32,29.72,4,1,0,0.00
2013-12-10,36.3,27.6,18.5,36.1,27.3,18.3,99,99,99,29.81,29.64,7,2,0,0.00
2013-12-11,32.4,24.2,17.2,32.1,23.9,17.0,99,99,99,29.99,29.81,10,3,0,0.00
2013-12-12,24.4,13.0,2.5,18.7,10.4,2.3,99,91,55,30.12,29.85,14,3,0,0.00
2013-12-13,26.6,14.5,1.6,26.4,14.3,1.4,99,99,99,30.25,29.77,8,3,0,0.00
2013-12-14,11.7,6.3,0.1,11.4,6.1,-0.1,99,99,99,30.46,30.04,8,3,0,0.00
2013-12-15,30.7,19.8,9.3,30.5,19.6,9.1,99,99,99,30.02,29.33,7,1,0,0.00
2013-12-16,26.8,17.0,-3.1,25.3,15.9,-3.3,99,96,65,30.03,29.54,10,3,0,0.00
2013-12-17,9.5,0.9,-13.5,9.3,0.6,-13.7,99,99,99,30.11,29.86,4,1,0,0.00
2013-12-18,38.5,16.6,4.6,38.2,16.3,4.4,99,99,99,29.87,29.76,6,2,0,0.00
2013-12-19,43.2,27.7,18.1,42.9,27.4,17.9,99,99,99,29.92,29.77,7,2,0,0.07
2013-12-20,43.0,32.7,26.6,42.7,32.5,26.4,99,99,99,29.93,29.74,3,2,0,0.25
2013-12-21,51.1,36.9,33.1,50.8,36.6,32.8,99,99,99,29.78,29.68,5,2,0,0.20
2013-12-22,47.3,38.4,34.0,47.0,38.1,33.7,99,99,99,29.78,29.56,4,2,0,0.08
2013-12-23,37.4,35.3,33.6,37.1,35.1,33.4,99,99,99,29.98,29.76,9,2,0,0.47
2013-12-24,33.4,27.4,18.3,33.2,27.1,18.1,99,99,99,30.08,29.91,12,4,0,0.00
2013-12-25,23.5,15.0,8.4,23.1,14.8,8.2,99,99,98,30.36,30.08,9,3,0,0.00
2013-12-26,30.4,21.5,15.6,30.1,21.3,15.4,99,99,99,30.28,29.93,3,1,0,0.00
2013-12-27,34.7,26.1,16.7,34.4,25.8,16.5,99,99,99,30.09,30.01,6,2,0,0.00
2013-12-28,42.3,28.8,17.8,42.0,28.5,17.5,99,99,99,30.03,29.82,8,3,0,0.07
2013-12-29,37.0,30.5,24.3,36.8,30.2,24.0,99,99,99,29.87,29.40,4,1,0,0.48
2013-12-30,36.0,26.2,8.2,35.7,26.0,8.0,99,99,99,30.02,29.42,6,2,0,0.09
2013-12-31,21.2,11.3,1.0,21.0,11.0,0.8,99,99,99,30.03,29.86,7,1,0,0.00
2014-1-1,27.3,14.0,4.3,27.1,13.8,4.1,99,99,99,30.21,30.00,6,1,0,0.00
2014-1-2,12.7,6.3,3.0,12.5,6.1,2.8,99,99,99,30.19,29.75,8,4,0,0.00